createdAt,value
2024-04-23T00:01:00.911Z,2.30
2024-04-23T00:03:27.580Z,3.28
2024-04-23T00:05:54.497Z,2.40
2024-04-23T00:08:21.181Z,2.25
2024-04-23T00:10:47.859Z,2.10
2024-04-23T00:13:14.468Z,2.67
2024-04-23T00:15:41.059Z,2.10
2024-04-23T00:18:07.750Z,1.90
2024-04-23T00:20:34.437Z,2.72
2024-04-23T00:23:01.137Z,2.85
2024-04-23T00:25:27.748Z,2.35
2024-04-23T00:27:54.398Z,2.40
2024-04-23T00:30:20.975Z,2.05
2024-04-23T00:32:47.629Z,2.30
2024-04-23T00:35:14.364Z,2.35
2024-04-23T00:37:41.021Z,2.30
2024-04-23T00:40:08.084Z,2.10
2024-04-23T00:42:34.650Z,2.30
2024-04-23T00:45:01.320Z,2.05
2024-04-23T00:47:27.965Z,2.60
2024-04-23T00:49:55.815Z,2.67
2024-04-23T00:52:23.795Z,2.13
2024-04-23T00:54:51.355Z,2.50
2024-04-23T00:57:18.138Z,2.42
2024-04-23T00:59:45.084Z,2.30
2024-04-23T01:02:12.122Z,2.15
2024-04-23T01:04:39.160Z,3.30
2024-04-23T01:07:05.804Z,2.30
2024-04-23T01:09:32.495Z,2.85
2024-04-23T01:11:59.190Z,2.50
2024-04-23T01:14:25.882Z,2.45
2024-04-23T01:16:53.050Z,2.72
2024-04-23T01:19:35.081Z,2.33
2024-04-23T01:22:12.556Z,2.30
2024-04-23T01:25:00.793Z,2.33
2024-04-23T01:27:29.176Z,2.53
2024-04-23T01:29:57.702Z,2.55
2024-04-23T01:32:26.688Z,2.28
2024-04-23T01:34:55.208Z,2.55
2024-04-23T01:37:25.803Z,2.85
2024-04-23T01:39:54.063Z,2.53
2024-04-23T01:42:23.382Z,2.15
2024-04-23T01:44:50.161Z,3.00
2024-04-23T01:47:16.875Z,2.67
2024-04-23T01:49:44.993Z,2.78
2024-04-23T01:52:11.878Z,2.63
2024-04-23T01:54:39.907Z,2.35
2024-04-23T01:57:08.741Z,2.42
2024-04-23T01:59:40.326Z,2.22
2024-04-23T02:02:07.230Z,2.70
2024-04-23T02:04:34.445Z,2.42
2024-04-23T02:07:01.220Z,3.10
2024-04-23T02:09:28.639Z,2.75
2024-04-23T02:11:56.453Z,3.95
2024-04-23T02:14:23.396Z,3.63
2024-04-23T02:16:50.050Z,2.38
2024-04-23T02:19:16.609Z,2.30
2024-04-23T02:21:43.269Z,2.60
2024-04-23T02:24:09.833Z,2.67
2024-04-23T02:26:36.436Z,2.75
2024-04-23T02:29:03.064Z,3.00
2024-04-23T02:31:29.749Z,2.72
2024-04-23T02:33:56.361Z,2.13
2024-04-23T02:36:23.032Z,2.67
2024-04-23T02:38:49.705Z,2.35
2024-04-23T02:41:16.319Z,2.50
2024-04-23T02:43:43.058Z,2.13
2024-04-23T02:46:09.740Z,4.03
2024-04-23T02:48:36.424Z,2.80
2024-04-23T02:51:03.104Z,2.60
2024-04-23T02:53:29.667Z,2.30
2024-04-23T02:55:56.246Z,2.47
2024-04-23T02:58:22.815Z,2.53
2024-04-23T03:00:49.481Z,2.45
2024-04-23T03:03:16.125Z,2.55
2024-04-23T03:05:42.800Z,2.28
2024-04-23T03:08:09.413Z,2.53
2024-04-23T03:10:36.061Z,2.22
2024-04-23T03:13:02.648Z,2.50
2024-04-23T03:15:29.223Z,2.50
2024-04-23T03:17:55.849Z,2.42
2024-04-23T03:20:22.713Z,2.70
2024-04-23T03:22:49.478Z,2.40
2024-04-23T03:25:16.031Z,2.30
2024-04-23T03:27:42.739Z,2.58
2024-04-23T03:30:09.695Z,2.30
2024-04-23T03:32:36.406Z,2.67
2024-04-23T03:35:03.062Z,2.55
2024-04-23T03:37:29.702Z,2.83
2024-04-23T03:39:56.878Z,2.60
2024-04-23T03:42:23.527Z,2.40
2024-04-23T03:44:51.049Z,2.65
2024-04-23T03:47:17.700Z,3.28
2024-04-23T03:49:45.784Z,2.83
2024-04-23T03:52:14.007Z,3.22
2024-04-23T03:54:42.309Z,3.03
2024-04-23T03:57:08.910Z,3.08
2024-04-23T03:59:35.541Z,3.25
2024-04-23T04:02:20.798Z,2.85
2024-04-23T04:05:06.128Z,3.08
2024-04-23T04:07:32.750Z,2.80
2024-04-23T04:09:59.643Z,3.22
2024-04-23T04:12:26.223Z,3.00
2024-04-23T04:14:52.839Z,2.85
2024-04-23T04:17:19.548Z,2.55
2024-04-23T04:19:46.440Z,3.08
2024-04-23T04:22:13.310Z,3.05
2024-04-23T04:24:39.858Z,3.40
2024-04-23T04:27:06.447Z,2.78
2024-04-23T04:31:59.694Z,2.70
2024-04-23T04:34:26.298Z,3.25
2024-04-23T04:36:52.885Z,3.25
2024-04-23T04:39:19.433Z,2.95
2024-04-23T04:41:46.058Z,2.92
2024-04-23T04:44:12.706Z,3.10
2024-04-23T04:46:39.353Z,3.38
2024-04-23T04:49:06.046Z,3.47
2024-04-23T04:51:32.750Z,2.90
2024-04-23T04:53:59.324Z,3.17
2024-04-23T04:56:28.624Z,3.28
2024-04-23T04:58:55.245Z,2.58
2024-04-23T05:01:21.871Z,2.80
2024-04-23T05:03:48.444Z,3.35
2024-04-23T05:06:15.024Z,3.30
2024-04-23T05:08:41.564Z,2.85
2024-04-23T05:11:08.212Z,3.42
2024-04-23T05:13:34.916Z,2.80
2024-04-23T05:16:01.533Z,2.50
2024-04-23T05:18:28.123Z,2.70
2024-04-23T05:20:54.827Z,3.00
2024-04-23T05:23:21.433Z,3.67
2024-04-23T05:25:48.347Z,4.10
2024-04-23T05:28:14.995Z,3.47
2024-04-23T05:31:00.424Z,4.82
2024-04-23T05:33:27.300Z,3.67
2024-04-23T05:35:53.964Z,3.67
2024-04-23T05:38:20.639Z,3.50
2024-04-23T05:40:47.286Z,3.63
2024-04-23T05:43:13.916Z,2.90
2024-04-23T05:45:40.578Z,3.78
2024-04-23T05:48:45.211Z,4.10
2024-04-23T05:52:15.932Z,4.30
2024-04-23T05:55:40.627Z,4.47
2024-04-23T05:58:09.231Z,3.55
2024-04-23T06:00:37.416Z,4.68
2024-04-23T06:03:04.498Z,4.18
2024-04-23T06:05:31.567Z,4.22
2024-04-23T06:07:59.106Z,4.38
2024-04-23T06:10:25.885Z,4.57
2024-04-23T06:12:52.489Z,3.75
2024-04-23T06:15:19.515Z,4.30
2024-04-23T06:17:48.292Z,3.78
2024-04-23T06:20:16.046Z,4.07
2024-04-23T06:22:43.899Z,3.83
2024-04-23T06:25:12.107Z,4.15
2024-04-23T06:27:40.363Z,4.32
2024-04-23T06:30:09.346Z,4.00
2024-04-23T06:32:37.333Z,3.88
2024-04-23T06:35:04.846Z,4.25
2024-04-23T06:37:32.106Z,3.30
2024-04-23T06:39:58.819Z,3.45
2024-04-23T06:42:25.482Z,2.72
2024-04-23T06:44:52.132Z,3.05
2024-04-23T06:47:18.808Z,3.35
2024-04-23T06:50:06.542Z,3.83
2024-04-23T06:52:37.792Z,3.17
2024-04-23T06:55:04.567Z,2.85
2024-04-23T06:57:31.146Z,2.58
2024-04-23T06:59:57.936Z,2.50
2024-04-23T07:02:25.597Z,3.00
2024-04-23T07:04:52.466Z,2.47
2024-04-23T07:07:19.267Z,2.70
2024-04-23T07:09:45.811Z,2.53
2024-04-23T07:12:12.513Z,2.55
2024-04-23T07:14:40.522Z,2.22
2024-04-23T07:17:07.268Z,2.97
2024-04-23T07:19:33.917Z,2.42
2024-04-23T07:22:01.424Z,3.08
2024-04-23T07:24:28.064Z,2.63
2024-04-23T07:26:54.841Z,2.83
2024-04-23T07:29:21.527Z,2.58
2024-04-23T07:31:48.163Z,2.33
2024-04-23T07:34:14.772Z,4.15
2024-04-23T07:36:44.391Z,3.45
2024-04-23T07:39:14.407Z,2.28
2024-04-23T07:41:41.565Z,2.47
2024-04-23T07:44:08.309Z,2.80
2024-04-23T07:46:35.069Z,2.40
2024-04-23T07:49:01.837Z,2.95
2024-04-23T07:51:32.134Z,3.78
2024-04-23T07:53:58.737Z,2.90
2024-04-23T07:56:25.263Z,3.15
2024-04-23T07:58:51.900Z,2.65
2024-04-23T08:01:18.540Z,2.58
2024-04-23T08:03:45.207Z,2.80
2024-04-23T08:06:11.808Z,2.63
2024-04-23T08:08:38.402Z,5.57
2024-04-23T08:11:05.397Z,2.85
2024-04-23T08:13:32.588Z,3.08
2024-04-23T08:15:59.300Z,3.72
2024-04-23T08:18:26.028Z,3.80
2024-04-23T08:20:53.200Z,3.10
2024-04-23T08:23:20.902Z,3.58
2024-04-23T08:25:50.500Z,2.70
2024-04-23T08:28:17.195Z,2.92
2024-04-23T08:30:46.724Z,3.38
2024-04-23T08:33:13.432Z,3.47
2024-04-23T08:35:40.047Z,3.78
2024-04-23T08:38:06.986Z,3.55
2024-04-23T08:40:35.738Z,3.17
2024-04-23T08:43:08.898Z,3.47
2024-04-23T08:45:37.854Z,3.47
2024-04-23T08:48:05.377Z,3.60
2024-04-23T08:50:32.329Z,3.97
2024-04-23T08:52:59.018Z,3.40
2024-04-23T08:55:26.675Z,3.50
2024-04-23T08:57:53.658Z,3.85
2024-04-23T09:00:20.678Z,3.45
2024-04-23T09:02:50.404Z,3.75
2024-04-23T09:05:18.460Z,3.08
2024-04-23T09:07:47.759Z,3.75
2024-04-23T09:10:14.483Z,3.17
2024-04-23T09:12:47.272Z,2.97
2024-04-23T09:15:14.291Z,3.65
2024-04-23T09:17:53.911Z,2.85
2024-04-23T09:20:22.977Z,3.60
2024-04-23T09:23:01.240Z,3.40
2024-04-23T09:25:38.143Z,3.28
2024-04-23T09:28:09.678Z,2.95
2024-04-23T09:30:38.945Z,3.63
2024-04-23T09:33:05.956Z,2.78
2024-04-23T09:35:32.697Z,2.53
2024-04-23T09:38:00.054Z,2.92
2024-04-23T09:40:26.826Z,2.88
2024-04-23T09:42:56.426Z,2.70
2024-04-23T09:45:26.427Z,3.30
2024-04-23T09:47:53.218Z,3.50
2024-04-23T09:50:22.938Z,2.67
2024-04-23T09:52:49.777Z,2.90
2024-04-23T09:55:17.749Z,2.53
2024-04-23T09:57:45.172Z,2.70
2024-04-23T10:00:12.524Z,2.28
2024-04-23T10:02:40.818Z,2.38
2024-04-23T10:05:11.487Z,2.17
2024-04-23T10:07:57.363Z,2.97
2024-04-23T10:10:30.378Z,3.63
2024-04-23T10:15:33.286Z,2.78
2024-04-23T10:18:12.991Z,3.40
2024-04-23T10:20:45.686Z,2.78
2024-04-23T10:23:16.615Z,2.58
2024-04-23T10:25:43.977Z,2.58
2024-04-23T10:28:10.714Z,2.65
2024-04-23T10:30:38.269Z,2.45
2024-04-23T10:33:08.854Z,3.13
2024-04-23T10:35:36.310Z,2.42
2024-04-23T10:38:05.382Z,2.05
2024-04-23T10:40:40.555Z,2.20
2024-04-23T10:43:15.578Z,2.55
2024-04-23T10:45:42.503Z,1.38
2024-04-23T10:48:11.043Z,1.67
2024-04-23T10:50:38.670Z,1.98
2024-04-23T10:53:06.037Z,2.28
2024-04-23T10:55:32.655Z,1.98
2024-04-23T10:57:59.504Z,1.80
2024-04-23T11:00:28.019Z,2.08
2024-04-23T11:02:54.953Z,1.30
2024-04-23T11:05:22.636Z,1.30
2024-04-23T11:07:50.790Z,1.50
2024-04-23T11:10:23.843Z,1.77
2024-04-23T11:15:17.534Z,1.35
2024-04-23T11:17:44.376Z,1.85
2024-04-23T11:20:12.223Z,1.98
2024-04-23T11:22:45.243Z,2.03
2024-04-23T11:27:40.949Z,2.28
2024-04-23T11:30:15.165Z,1.73
2024-04-23T11:32:41.897Z,2.15
2024-04-23T11:35:09.277Z,1.95
2024-04-23T11:37:36.306Z,1.92
2024-04-23T11:40:03.590Z,1.80
2024-04-23T11:42:32.313Z,2.03
2024-04-23T11:45:06.350Z,2.05
2024-04-23T11:47:34.655Z,1.70
2024-04-23T11:50:04.301Z,2.15
2024-04-23T11:52:31.314Z,1.70
2024-04-23T11:54:58.286Z,2.17
2024-04-23T11:57:25.311Z,1.83
2024-04-23T11:59:51.934Z,2.15
2024-04-23T12:02:19.018Z,2.15
2024-04-23T12:04:46.823Z,2.00
2024-04-23T12:07:14.787Z,1.83
2024-04-23T12:09:41.402Z,1.77
2024-04-23T12:12:08.507Z,2.42
2024-04-23T12:14:35.065Z,1.95
2024-04-23T12:17:02.798Z,2.10
2024-04-23T12:19:29.552Z,1.83
2024-04-23T12:21:58.057Z,1.83
2024-04-23T12:24:27.608Z,2.15
2024-04-23T12:26:55.945Z,2.15
2024-04-23T12:29:29.753Z,2.05
2024-04-23T12:32:01.015Z,2.40
2024-04-23T12:34:28.449Z,2.00
2024-04-23T12:36:55.475Z,2.55
2024-04-23T12:39:22.420Z,2.17
2024-04-23T12:41:49.078Z,1.92
2024-04-23T12:44:22.756Z,2.22
2024-04-23T12:46:49.910Z,2.53
2024-04-23T12:49:16.601Z,1.88
2024-04-23T12:51:43.286Z,2.00
2024-04-23T12:54:09.960Z,1.65
2024-04-23T12:56:37.564Z,2.03
2024-04-23T12:59:06.973Z,1.95
2024-04-23T13:01:41.954Z,1.85
2024-04-23T13:04:12.344Z,1.80
2024-04-23T13:06:39.197Z,2.13
2024-04-23T13:09:06.617Z,1.70
2024-04-23T13:11:33.457Z,2.40
2024-04-23T13:14:00.348Z,2.50
2024-04-23T13:16:38.964Z,1.60
2024-04-23T13:19:12.960Z,2.22
2024-04-23T13:21:39.541Z,2.10
2024-04-23T13:24:06.403Z,2.58
2024-04-23T13:26:32.990Z,2.38
2024-04-23T13:29:00.935Z,1.80
2024-04-23T13:31:27.564Z,1.92
2024-04-23T13:33:54.138Z,2.38
2024-04-23T13:36:20.720Z,2.13
2024-04-23T13:38:47.473Z,1.88
2024-04-23T13:41:14.613Z,1.83
2024-04-23T13:43:41.281Z,2.45
2024-04-23T13:46:08.332Z,2.53
2024-04-23T13:48:35.354Z,1.92
2024-04-23T13:51:02.001Z,1.85
2024-04-23T13:53:28.775Z,1.95
2024-04-23T13:55:55.390Z,1.70
2024-04-23T13:58:22.051Z,1.70
2024-04-23T14:00:48.630Z,2.15
2024-04-23T14:03:15.333Z,1.40
2024-04-23T14:05:43.458Z,1.65
2024-04-23T14:08:13.295Z,1.42
2024-04-23T14:10:40.160Z,2.22
2024-04-23T14:13:06.817Z,1.63
2024-04-23T14:15:33.441Z,1.88
2024-04-23T14:18:00.256Z,1.70
2024-04-23T14:20:26.864Z,1.52
2024-04-23T14:22:54.872Z,1.42
2024-04-23T14:25:21.491Z,1.58
2024-04-23T14:27:48.112Z,1.65
2024-04-23T14:30:15.025Z,1.48
2024-04-23T14:32:41.916Z,1.58
2024-04-23T14:35:09.523Z,1.60
2024-04-23T14:37:38.802Z,1.70
2024-04-23T14:40:07.594Z,1.20
2024-04-23T14:42:34.476Z,1.42
2024-04-23T14:45:02.519Z,1.35
2024-04-23T14:47:30.131Z,1.70
2024-04-23T14:49:57.005Z,1.52
2024-04-23T14:52:23.690Z,1.73
2024-04-23T14:54:50.289Z,1.63
2024-04-23T14:57:16.932Z,2.10
2024-04-23T14:59:43.488Z,2.13
2024-04-23T15:02:10.541Z,1.70
2024-04-23T15:04:37.223Z,1.83
2024-04-23T15:07:03.991Z,1.80
2024-04-23T15:09:31.171Z,1.70
2024-04-23T15:11:57.789Z,1.60
2024-04-23T15:14:24.531Z,1.15
2024-04-23T15:16:53.807Z,1.63
2024-04-23T15:19:20.571Z,1.23
2024-04-23T15:21:47.171Z,1.55
2024-04-23T15:24:13.685Z,1.17
2024-04-23T15:26:40.327Z,1.00
2024-04-23T15:29:07.001Z,1.67
2024-04-23T15:31:33.839Z,1.50
2024-04-23T15:34:00.593Z,1.30
2024-04-23T15:36:31.118Z,1.33
2024-04-23T15:38:58.368Z,1.50
2024-04-23T15:41:25.129Z,1.75
2024-04-23T15:43:52.196Z,1.85
2024-04-23T15:46:18.973Z,1.83
2024-04-23T15:48:45.762Z,2.55
2024-04-23T15:51:12.547Z,1.70
2024-04-23T15:53:39.419Z,1.65
2024-04-23T15:56:06.551Z,1.67
2024-04-23T15:58:33.265Z,1.60
2024-04-23T16:01:04.281Z,1.42
2024-04-23T16:03:34.557Z,1.60
2024-04-23T16:06:02.502Z,1.83
2024-04-23T16:08:29.171Z,1.60
2024-04-23T16:11:00.917Z,1.65
2024-04-23T16:13:29.544Z,1.30
2024-04-23T16:15:59.963Z,1.15
2024-04-23T16:18:31.080Z,1.40
2024-04-23T16:21:02.046Z,1.60
2024-04-23T16:23:29.265Z,1.50
2024-04-23T16:26:00.780Z,1.75
2024-04-23T16:28:27.454Z,1.35
2024-04-23T16:30:55.368Z,1.33
2024-04-23T16:33:22.081Z,1.48
2024-04-23T16:35:49.314Z,1.20
2024-04-23T16:38:16.069Z,1.40
2024-04-23T16:40:42.787Z,1.30
2024-04-23T16:43:09.645Z,1.30
2024-04-23T16:45:37.144Z,1.35
2024-04-23T16:48:07.089Z,1.25
2024-04-23T16:50:33.812Z,1.70
2024-04-23T16:53:00.578Z,1.67
2024-04-23T16:55:27.222Z,1.50
2024-04-23T16:57:54.535Z,1.23
2024-04-23T17:00:21.171Z,1.40
2024-04-23T17:02:47.802Z,1.30
2024-04-23T17:05:14.380Z,1.70
2024-04-23T17:07:41.082Z,1.38
2024-04-23T17:10:08.911Z,1.00
2024-04-23T17:12:35.465Z,1.80
2024-04-23T17:15:02.188Z,1.33
2024-04-23T17:17:29.395Z,1.25
2024-04-23T17:19:57.077Z,1.20
2024-04-23T17:22:23.713Z,1.65
2024-04-23T17:24:50.249Z,2.30
2024-04-23T17:27:16.812Z,1.70
2024-04-23T17:29:43.351Z,1.40
2024-04-23T17:32:10.087Z,1.40
2024-04-23T17:34:36.729Z,1.40
2024-04-23T17:37:05.357Z,2.13
2024-04-23T17:39:32.114Z,2.10
2024-04-23T17:41:59.079Z,1.83
2024-04-23T17:44:25.773Z,2.20
2024-04-23T17:46:52.547Z,2.05
2024-04-23T17:49:19.524Z,2.03
2024-04-23T17:51:46.179Z,2.00
2024-04-23T17:54:12.748Z,2.10
2024-04-23T17:56:41.142Z,3.38
2024-04-23T17:59:08.650Z,2.70
2024-04-23T18:01:35.311Z,2.55
2024-04-23T18:04:01.893Z,2.55
2024-04-23T18:06:28.513Z,2.45
2024-04-23T18:08:55.103Z,1.98
2024-04-23T18:11:24.927Z,2.35
2024-04-23T18:13:51.743Z,5.35
2024-04-23T18:16:19.217Z,4.45
2024-04-23T18:18:46.024Z,3.50
2024-04-23T18:21:13.843Z,4.43
2024-04-23T18:23:40.598Z,4.05
2024-04-23T18:26:08.406Z,3.78
2024-04-23T18:28:35.391Z,2.78
2024-04-23T18:31:05.451Z,5.93
2024-04-23T18:33:32.343Z,3.55
2024-04-23T18:36:03.343Z,2.20
2024-04-23T18:38:30.797Z,1.92
2024-04-23T18:41:13.417Z,1.70
2024-04-23T18:43:40.506Z,1.52
2024-04-23T18:46:17.005Z,1.70
2024-04-23T18:48:46.899Z,1.60
2024-04-23T18:51:14.823Z,3.92
2024-04-23T18:53:42.574Z,2.80
2024-04-23T18:56:17.878Z,2.75
2024-04-23T18:58:44.631Z,3.00
2024-04-23T19:01:13.554Z,2.30
2024-04-23T19:03:44.459Z,2.95
2024-04-23T19:06:15.396Z,2.40
2024-04-23T19:08:47.031Z,2.90
2024-04-23T19:11:14.480Z,3.05
2024-04-23T19:13:41.275Z,2.45
2024-04-23T19:16:10.611Z,2.30
2024-04-23T19:18:37.352Z,2.72
2024-04-23T19:21:04.606Z,3.10
2024-04-23T19:23:31.170Z,3.03
2024-04-23T19:26:01.721Z,3.10
2024-04-23T19:28:31.609Z,2.75
2024-04-23T19:30:58.286Z,4.05
2024-04-23T19:33:25.396Z,3.88
2024-04-23T19:35:52.203Z,4.10
2024-04-23T19:38:19.596Z,3.35
2024-04-23T19:40:46.322Z,3.65
2024-04-23T19:43:12.935Z,2.42
2024-04-23T19:45:39.755Z,3.45
2024-04-23T19:48:06.464Z,3.33
2024-04-23T19:50:33.085Z,3.47
2024-04-23T19:52:59.623Z,3.85
2024-04-23T19:55:26.208Z,3.40
2024-04-23T19:58:11.459Z,3.40
2024-04-23T20:00:38.152Z,3.70
2024-04-23T20:03:04.964Z,3.70
2024-04-23T20:05:31.608Z,4.28
2024-04-23T20:07:58.296Z,3.67
2024-04-23T20:10:24.869Z,4.40
2024-04-23T20:12:51.431Z,4.00
2024-04-23T20:15:17.980Z,4.00
2024-04-23T20:17:46.433Z,3.78
2024-04-23T20:20:13.187Z,3.95
2024-04-23T20:22:39.746Z,3.42
2024-04-23T20:25:06.494Z,4.30
2024-04-23T20:27:33.035Z,4.47
2024-04-23T20:29:59.627Z,4.18
2024-04-23T20:32:26.217Z,4.43
2024-04-23T20:34:52.854Z,5.18
2024-04-23T20:37:19.478Z,4.57
2024-04-23T20:39:46.122Z,6.03
2024-04-23T20:42:12.746Z,3.90
2024-04-23T20:44:39.444Z,4.03
2024-04-23T20:47:06.343Z,3.80
2024-04-23T20:49:32.981Z,3.95
2024-04-23T20:51:59.534Z,3.45
2024-04-23T20:54:26.178Z,3.65
2024-04-23T20:56:52.808Z,4.43
2024-04-23T20:59:20.131Z,3.47
2024-04-23T21:01:46.823Z,4.40
2024-04-23T21:04:16.265Z,4.05
2024-04-23T21:06:42.876Z,3.42
2024-04-23T21:09:09.517Z,3.67
2024-04-23T21:11:40.113Z,4.22
2024-04-23T21:14:07.447Z,4.15
2024-04-23T21:16:34.236Z,4.90
2024-04-23T21:19:00.840Z,4.28
2024-04-23T21:21:27.375Z,4.40
2024-04-23T21:23:54.105Z,3.45
2024-04-23T21:26:20.747Z,4.30
2024-04-23T21:28:47.879Z,4.50
2024-04-23T21:31:14.622Z,3.92
2024-04-23T21:33:41.304Z,3.70
2024-04-23T21:36:09.781Z,4.10
2024-04-23T21:38:37.235Z,4.18
2024-04-23T21:41:08.595Z,3.92
2024-04-23T21:43:36.717Z,4.45
2024-04-23T21:46:06.827Z,4.60
2024-04-23T21:48:34.279Z,4.80
2024-04-23T21:51:14.957Z,4.82
2024-04-23T21:53:42.152Z,5.07
2024-04-23T21:56:09.414Z,5.55
2024-04-23T21:58:38.097Z,4.85
2024-04-23T22:01:15.422Z,4.97
2024-04-23T22:03:43.152Z,4.47
2024-04-23T22:06:11.114Z,5.25
2024-04-23T22:08:38.485Z,4.28
2024-04-23T22:11:05.642Z,4.70
2024-04-23T22:13:32.626Z,4.50
2024-04-23T22:15:59.223Z,4.82
2024-04-23T22:18:27.077Z,4.72
2024-04-23T22:20:53.790Z,4.63
2024-04-23T22:23:20.492Z,4.28
2024-04-23T22:25:48.557Z,4.25
2024-04-23T22:28:16.302Z,4.53
2024-04-23T22:30:42.867Z,5.47
2024-04-23T22:33:11.160Z,5.10
2024-04-23T22:35:37.840Z,5.15
2024-04-23T22:38:04.621Z,4.43
2024-04-23T22:40:31.226Z,4.97
2024-04-23T22:42:57.844Z,4.45
2024-04-23T22:45:24.472Z,4.60
2024-04-23T22:47:51.178Z,5.15
2024-04-23T22:50:17.853Z,4.97
2024-04-23T22:52:44.564Z,4.60
2024-04-23T22:55:12.100Z,4.72
2024-04-23T22:57:38.692Z,4.82
2024-04-23T23:00:05.959Z,4.53
2024-04-23T23:02:32.633Z,5.43
2024-04-23T23:04:59.274Z,4.63
2024-04-23T23:07:25.871Z,4.70
2024-04-23T23:09:52.417Z,5.15
2024-04-23T23:12:19.003Z,5.35
2024-04-23T23:14:45.761Z,5.53
2024-04-23T23:17:13.540Z,5.78
2024-04-23T23:19:40.258Z,6.30
2024-04-23T23:22:06.876Z,5.22
2024-04-23T23:24:33.685Z,5.65
2024-04-23T23:27:00.255Z,6.10
2024-04-23T23:29:26.917Z,6.15
2024-04-23T23:31:53.761Z,5.75
2024-04-23T23:34:20.339Z,5.30
2024-04-23T23:36:46.905Z,5.57
2024-04-23T23:39:13.517Z,5.88
2024-04-23T23:41:40.139Z,5.40
2024-04-23T23:44:06.879Z,6.15
2024-04-23T23:46:34.538Z,5.55
2024-04-23T23:49:01.249Z,6.30
2024-04-23T23:51:27.907Z,6.18
2024-04-23T23:53:54.465Z,5.35
2024-04-23T23:56:21.847Z,5.18
2024-04-23T23:58:48.417Z,5.38
